sensor_id;sensor_type;location;lat;lon;timestamp;P1;durP1;ratioP1;P2;durP2;ratioP2
20531;SDS011;10424;52.102;8.084;2024-03-23T00:54:00;21.67;;;6.97;;
20531;SDS011;10424;52.102;8.084;2024-03-23T00:56:26;17.48;;;6.57;;
20531;SDS011;10424;52.102;8.084;2024-03-23T00:58:53;23.08;;;6.65;;
20531;SDS011;10424;52.102;8.084;2024-03-23T01:01:19;16.15;;;5.88;;
20531;SDS011;10424;52.102;8.084;2024-03-23T01:03:46;14.18;;;5.40;;
20531;SDS011;10424;52.102;8.084;2024-03-23T01:06:13;20.10;;;6.30;;
20531;SDS011;10424;52.102;8.084;2024-03-23T01:08:40;16.65;;;5.63;;
20531;SDS011;10424;52.102;8.084;2024-03-23T01:11:10;14.13;;;5.20;;
20531;SDS011;10424;52.102;8.084;2024-03-23T01:13:37;13.48;;;3.95;;
20531;SDS011;10424;52.102;8.084;2024-03-23T01:16:04;12.88;;;4.05;;
20531;SDS011;10424;52.102;8.084;2024-03-23T01:18:31;17.00;;;4.55;;
20531;SDS011;10424;52.102;8.084;2024-03-23T01:20:58;11.50;;;4.57;;
20531;SDS011;10424;52.102;8.084;2024-03-23T01:23:25;12.45;;;5.07;;
20531;SDS011;10424;52.102;8.084;2024-03-23T01:25:51;16.42;;;5.15;;
20531;SDS011;10424;52.102;8.084;2024-03-23T01:28:20;13.10;;;5.57;;
20531;SDS011;10424;52.102;8.084;2024-03-23T01:30:47;17.92;;;5.43;;
20531;SDS011;10424;52.102;8.084;2024-03-23T01:33:14;13.70;;;4.50;;
20531;SDS011;10424;52.102;8.084;2024-03-23T01:35:40;15.90;;;5.50;;
20531;SDS011;10424;52.102;8.084;2024-03-23T01:38:08;11.32;;;4.38;;
20531;SDS011;10424;52.102;8.084;2024-03-23T01:40:34;14.77;;;4.68;;
20531;SDS011;10424;52.102;8.084;2024-03-23T01:43:03;13.55;;;4.50;;
20531;SDS011;10424;52.102;8.084;2024-03-23T01:45:30;11.30;;;4.63;;
20531;SDS011;10424;52.102;8.084;2024-03-23T01:47:58;13.52;;;4.68;;
20531;SDS011;10424;52.102;8.084;2024-03-23T01:50:24;10.68;;;4.00;;
20531;SDS011;10424;52.102;8.084;2024-03-23T01:52:52;14.27;;;3.85;;
20531;SDS011;10424;52.102;8.084;2024-03-23T01:55:18;14.38;;;4.18;;
20531;SDS011;10424;52.102;8.084;2024-03-23T01:57:45;16.15;;;4.00;;
20531;SDS011;10424;52.102;8.084;2024-03-23T02:00:11;11.80;;;4.40;;
20531;SDS011;10424;52.102;8.084;2024-03-23T02:02:42;13.00;;;4.18;;
20531;SDS011;10424;52.102;8.084;2024-03-23T02:05:09;10.80;;;3.55;;
20531;SDS011;10424;52.102;8.084;2024-03-23T02:07:37;11.90;;;4.05;;
20531;SDS011;10424;52.102;8.084;2024-03-23T02:10:03;10.30;;;3.72;;
20531;SDS011;10424;52.102;8.084;2024-03-23T02:12:31;11.00;;;3.00;;
20531;SDS011;10424;52.102;8.084;2024-03-23T02:14:57;13.10;;;3.35;;
20531;SDS011;10424;52.102;8.084;2024-03-23T02:17:24;11.45;;;3.03;;
20531;SDS011;10424;52.102;8.084;2024-03-23T02:19:52;9.43;;;3.20;;
20531;SDS011;10424;52.102;8.084;2024-03-23T02:22:19;10.13;;;3.20;;
20531;SDS011;10424;52.102;8.084;2024-03-23T02:24:46;9.40;;;3.05;;
20531;SDS011;10424;52.102;8.084;2024-03-23T02:27:13;9.60;;;2.97;;
20531;SDS011;10424;52.102;8.084;2024-03-23T02:29:40;6.05;;;2.83;;
20531;SDS011;10424;52.102;8.084;2024-03-23T02:32:07;6.22;;;2.92;;
20531;SDS011;10424;52.102;8.084;2024-03-23T02:34:34;11.98;;;3.15;;
20531;SDS011;10424;52.102;8.084;2024-03-23T02:37:01;10.80;;;2.83;;
20531;SDS011;10424;52.102;8.084;2024-03-23T02:39:27;8.18;;;2.67;;
20531;SDS011;10424;52.102;8.084;2024-03-23T02:41:56;8.27;;;2.78;;
20531;SDS011;10424;52.102;8.084;2024-03-23T02:44:22;8.23;;;2.70;;
20531;SDS011;10424;52.102;8.084;2024-03-23T02:46:49;9.35;;;2.60;;
20531;SDS011;10424;52.102;8.084;2024-03-23T02:49:15;10.63;;;2.90;;
20531;SDS011;10424;52.102;8.084;2024-03-23T02:51:42;8.90;;;2.95;;
20531;SDS011;10424;52.102;8.084;2024-03-23T02:54:10;9.32;;;2.90;;
20531;SDS011;10424;52.102;8.084;2024-03-23T02:56:37;8.43;;;3.00;;
20531;SDS011;10424;52.102;8.084;2024-03-23T02:59:05;9.82;;;2.78;;
20531;SDS011;10424;52.102;8.084;2024-03-23T03:01:32;11.77;;;2.90;;
20531;SDS011;10424;52.102;8.084;2024-03-23T03:03:59;8.98;;;2.75;;
20531;SDS011;10424;52.102;8.084;2024-03-23T03:06:30;6.10;;;2.80;;
20531;SDS011;10424;52.102;8.084;2024-03-23T03:08:56;10.85;;;3.00;;
20531;SDS011;10424;52.102;8.084;2024-03-23T03:11:24;7.90;;;2.80;;
20531;SDS011;10424;52.102;8.084;2024-03-23T03:13:50;7.97;;;3.67;;
20531;SDS011;10424;52.102;8.084;2024-03-23T03:16:19;5.93;;;2.65;;
20531;SDS011;10424;52.102;8.084;2024-03-23T03:18:45;9.40;;;2.90;;
20531;SDS011;10424;52.102;8.084;2024-03-23T03:21:12;5.30;;;2.90;;
20531;SDS011;10424;52.102;8.084;2024-03-23T03:23:38;8.85;;;3.00;;
20531;SDS011;10424;52.102;8.084;2024-03-23T03:26:06;11.95;;;3.15;;
20531;SDS011;10424;52.102;8.084;2024-03-23T03:28:32;9.70;;;2.85;;
20531;SDS011;10424;52.102;8.084;2024-03-23T03:31:00;11.75;;;2.80;;
20531;SDS011;10424;52.102;8.084;2024-03-23T03:33:27;10.45;;;3.20;;
20531;SDS011;10424;52.102;8.084;2024-03-23T03:35:54;11.73;;;3.20;;
20531;SDS011;10424;52.102;8.084;2024-03-23T03:38:21;9.50;;;2.92;;
20531;SDS011;10424;52.102;8.084;2024-03-23T03:40:48;8.23;;;3.03;;
20531;SDS011;10424;52.102;8.084;2024-03-23T03:43:14;7.97;;;3.10;;
20531;SDS011;10424;52.102;8.084;2024-03-23T03:45:41;10.07;;;3.47;;
20531;SDS011;10424;52.102;8.084;2024-03-23T03:48:07;14.63;;;3.58;;
20531;SDS011;10424;52.102;8.084;2024-03-23T03:50:36;14.82;;;3.10;;
20531;SDS011;10424;52.102;8.084;2024-03-23T03:53:02;9.63;;;3.20;;
20531;SDS011;10424;52.102;8.084;2024-03-23T03:55:29;8.90;;;3.35;;
20531;SDS011;10424;52.102;8.084;2024-03-23T03:57:56;9.95;;;3.28;;
20531;SDS011;10424;52.102;8.084;2024-03-23T04:00:23;13.13;;;3.50;;
20531;SDS011;10424;52.102;8.084;2024-03-23T04:02:49;7.70;;;3.38;;
20531;SDS011;10424;52.102;8.084;2024-03-23T04:05:16;10.95;;;3.25;;
20531;SDS011;10424;52.102;8.084;2024-03-23T04:07:44;7.18;;;3.40;;
20531;SDS011;10424;52.102;8.084;2024-03-23T04:10:11;9.68;;;3.28;;
20531;SDS011;10424;52.102;8.084;2024-03-23T04:12:37;7.47;;;3.30;;
20531;SDS011;10424;52.102;8.084;2024-03-23T04:15:04;8.55;;;3.20;;
20531;SDS011;10424;52.102;8.084;2024-03-23T04:17:32;10.75;;;3.50;;
20531;SDS011;10424;52.102;8.084;2024-03-23T04:19:59;9.18;;;3.50;;
20531;SDS011;10424;52.102;8.084;2024-03-23T04:22:26;11.48;;;3.72;;
20531;SDS011;10424;52.102;8.084;2024-03-23T04:24:55;14.07;;;4.00;;
20531;SDS011;10424;52.102;8.084;2024-03-23T04:27:21;9.90;;;3.45;;
20531;SDS011;10424;52.102;8.084;2024-03-23T04:29:49;11.32;;;3.90;;
20531;SDS011;10424;52.102;8.084;2024-03-23T04:32:15;9.13;;;3.80;;
20531;SDS011;10424;52.102;8.084;2024-03-23T04:34:43;11.55;;;3.90;;
20531;SDS011;10424;52.102;8.084;2024-03-23T04:37:09;12.63;;;4.03;;
20531;SDS011;10424;52.102;8.084;2024-03-23T04:39:36;9.88;;;4.13;;
20531;SDS011;10424;52.102;8.084;2024-03-23T04:42:05;13.15;;;4.50;;
20531;SDS011;10424;52.102;8.084;2024-03-23T04:44:32;10.95;;;4.05;;
20531;SDS011;10424;52.102;8.084;2024-03-23T04:47:00;10.48;;;3.90;;
20531;SDS011;10424;52.102;8.084;2024-03-23T04:49:27;17.63;;;4.53;;
20531;SDS011;10424;52.102;8.084;2024-03-23T04:51:57;12.27;;;3.95;;
20531;SDS011;10424;52.102;8.084;2024-03-23T04:54:24;13.30;;;4.32;;
20531;SDS011;10424;52.102;8.084;2024-03-23T04:56:51;13.05;;;4.28;;
20531;SDS011;10424;52.102;8.084;2024-03-23T04:59:18;13.75;;;4.35;;
20531;SDS011;10424;52.102;8.084;2024-03-23T05:01:46;10.82;;;4.22;;
20531;SDS011;10424;52.102;8.084;2024-03-23T05:04:12;13.10;;;4.50;;
20531;SDS011;10424;52.102;8.084;2024-03-23T05:06:39;11.43;;;4.75;;
20531;SDS011;10424;52.102;8.084;2024-03-23T05:09:05;10.68;;;4.40;;
20531;SDS011;10424;52.102;8.084;2024-03-23T05:11:36;18.55;;;4.70;;
20531;SDS011;10424;52.102;8.084;2024-03-23T05:14:02;17.67;;;5.10;;
20531;SDS011;10424;52.102;8.084;2024-03-23T05:16:31;17.08;;;5.13;;
20531;SDS011;10424;52.102;8.084;2024-03-23T05:18:57;14.82;;;5.28;;
20531;SDS011;10424;52.102;8.084;2024-03-23T05:21:25;20.75;;;5.40;;
20531;SDS011;10424;52.102;8.084;2024-03-23T05:23:51;18.15;;;5.30;;
20531;SDS011;10424;52.102;8.084;2024-03-23T05:26:18;15.00;;;5.47;;
20531;SDS011;10424;52.102;8.084;2024-03-23T05:28:44;13.27;;;5.18;;
20531;SDS011;10424;52.102;8.084;2024-03-23T05:31:11;17.50;;;5.82;;
20531;SDS011;10424;52.102;8.084;2024-03-23T05:33:39;14.80;;;5.38;;
20531;SDS011;10424;52.102;8.084;2024-03-23T05:36:06;13.32;;;5.22;;
20531;SDS011;10424;52.102;8.084;2024-03-23T05:38:36;20.88;;;5.80;;
20531;SDS011;10424;52.102;8.084;2024-03-23T05:41:03;25.58;;;6.18;;
20531;SDS011;10424;52.102;8.084;2024-03-23T05:43:30;22.92;;;6.35;;
20531;SDS011;10424;52.102;8.084;2024-03-23T05:45:58;21.00;;;6.55;;
20531;SDS011;10424;52.102;8.084;2024-03-23T05:48:26;16.45;;;6.53;;
20531;SDS011;10424;52.102;8.084;2024-03-23T05:50:55;21.40;;;6.70;;
20531;SDS011;10424;52.102;8.084;2024-03-23T05:53:21;19.50;;;6.43;;
20531;SDS011;10424;52.102;8.084;2024-03-23T05:55:48;24.08;;;6.35;;
20531;SDS011;10424;52.102;8.084;2024-03-23T05:58:15;26.30;;;7.00;;
20531;SDS011;10424;52.102;8.084;2024-03-23T06:00:42;21.65;;;6.75;;
20531;SDS011;10424;52.102;8.084;2024-03-23T06:03:08;23.45;;;6.53;;
20531;SDS011;10424;52.102;8.084;2024-03-23T06:05:36;22.95;;;7.45;;
20531;SDS011;10424;52.102;8.084;2024-03-23T06:08:03;22.85;;;6.90;;
20531;SDS011;10424;52.102;8.084;2024-03-23T06:10:31;26.95;;;6.93;;
20531;SDS011;10424;52.102;8.084;2024-03-23T06:12:57;26.60;;;8.02;;
20531;SDS011;10424;52.102;8.084;2024-03-23T06:15:24;28.63;;;8.63;;
20531;SDS011;10424;52.102;8.084;2024-03-23T06:17:52;29.80;;;8.43;;
20531;SDS011;10424;52.102;8.084;2024-03-23T06:20:19;30.90;;;9.25;;
20531;SDS011;10424;52.102;8.084;2024-03-23T06:22:45;31.35;;;9.55;;
20531;SDS011;10424;52.102;8.084;2024-03-23T06:25:14;27.58;;;9.88;;
20531;SDS011;10424;52.102;8.084;2024-03-23T06:27:40;28.55;;;9.45;;
20531;SDS011;10424;52.102;8.084;2024-03-23T06:30:08;29.40;;;10.38;;
20531;SDS011;10424;52.102;8.084;2024-03-23T06:32:35;29.35;;;10.10;;
20531;SDS011;10424;52.102;8.084;2024-03-23T06:35:02;29.75;;;10.13;;
20531;SDS011;10424;52.102;8.084;2024-03-23T06:37:33;31.02;;;10.80;;
20531;SDS011;10424;52.102;8.084;2024-03-23T06:40:00;29.08;;;10.32;;
20531;SDS011;10424;52.102;8.084;2024-03-23T06:42:28;34.28;;;10.95;;
20531;SDS011;10424;52.102;8.084;2024-03-23T06:44:55;33.70;;;10.85;;
20531;SDS011;10424;52.102;8.084;2024-03-23T06:47:21;35.20;;;11.35;;
20531;SDS011;10424;52.102;8.084;2024-03-23T06:49:49;34.42;;;12.80;;
20531;SDS011;10424;52.102;8.084;2024-03-23T06:52:16;35.40;;;12.60;;
20531;SDS011;10424;52.102;8.084;2024-03-23T06:54:42;33.33;;;11.95;;
20531;SDS011;10424;52.102;8.084;2024-03-23T06:57:10;31.95;;;12.05;;
20531;SDS011;10424;52.102;8.084;2024-03-23T06:59:38;36.90;;;11.88;;
20531;SDS011;10424;52.102;8.084;2024-03-23T07:02:05;35.45;;;12.20;;
20531;SDS011;10424;52.102;8.084;2024-03-23T07:04:33;32.97;;;12.15;;
20531;SDS011;10424;52.102;8.084;2024-03-23T07:07:00;30.60;;;11.95;;
20531;SDS011;10424;52.102;8.084;2024-03-23T07:09:27;32.92;;;12.27;;
20531;SDS011;10424;52.102;8.084;2024-03-23T07:11:54;35.72;;;12.55;;
20531;SDS011;10424;52.102;8.084;2024-03-23T07:14:21;28.30;;;11.80;;
20531;SDS011;10424;52.102;8.084;2024-03-23T07:16:49;29.67;;;11.68;;
20531;SDS011;10424;52.102;8.084;2024-03-23T07:19:15;33.53;;;11.75;;
20531;SDS011;10424;52.102;8.084;2024-03-23T07:21:43;31.67;;;12.80;;
20531;SDS011;10424;52.102;8.084;2024-03-23T07:24:09;35.58;;;12.70;;
20531;SDS011;10424;52.102;8.084;2024-03-23T07:26:36;30.38;;;10.85;;
20531;SDS011;10424;52.102;8.084;2024-03-23T07:29:03;29.63;;;11.15;;
20531;SDS011;10424;52.102;8.084;2024-03-23T07:31:30;22.92;;;10.23;;
20531;SDS011;10424;52.102;8.084;2024-03-23T07:33:57;24.65;;;10.85;;
20531;SDS011;10424;52.102;8.084;2024-03-23T07:36:25;25.75;;;8.35;;
20531;SDS011;10424;52.102;8.084;2024-03-23T07:38:51;16.23;;;8.27;;
20531;SDS011;10424;52.102;8.084;2024-03-23T07:41:19;20.10;;;7.85;;
20531;SDS011;10424;52.102;8.084;2024-03-23T07:43:45;15.32;;;7.68;;
20531;SDS011;10424;52.102;8.084;2024-03-23T07:46:14;22.17;;;7.88;;
20531;SDS011;10424;52.102;8.084;2024-03-23T07:48:40;17.02;;;7.53;;
20531;SDS011;10424;52.102;8.084;2024-03-23T07:51:10;17.20;;;7.00;;
20531;SDS011;10424;52.102;8.084;2024-03-23T07:53:36;20.13;;;6.95;;
20531;SDS011;10424;52.102;8.084;2024-03-23T07:56:05;22.52;;;6.97;;
20531;SDS011;10424;52.102;8.084;2024-03-23T07:58:31;15.90;;;6.40;;
20531;SDS011;10424;52.102;8.084;2024-03-23T08:01:03;14.00;;;5.90;;
20531;SDS011;10424;52.102;8.084;2024-03-23T08:03:33;14.10;;;6.40;;
20531;SDS011;10424;52.102;8.084;2024-03-23T08:06:06;19.42;;;6.90;;
20531;SDS011;10424;52.102;8.084;2024-03-23T08:08:34;17.60;;;6.68;;
20531;SDS011;10424;52.102;8.084;2024-03-23T08:11:01;11.13;;;5.72;;
20531;SDS011;10424;52.102;8.084;2024-03-23T08:13:28;12.20;;;5.85;;
20531;SDS011;10424;52.102;8.084;2024-03-23T08:15:56;15.07;;;5.20;;
20531;SDS011;10424;52.102;8.084;2024-03-23T08:18:23;14.95;;;6.30;;
20531;SDS011;10424;52.102;8.084;2024-03-23T08:20:58;14.40;;;5.80;;
20531;SDS011;10424;52.102;8.084;2024-03-23T08:23:26;15.75;;;5.88;;
20531;SDS011;10424;52.102;8.084;2024-03-23T08:25:58;18.75;;;6.15;;
20531;SDS011;10424;52.102;8.084;2024-03-23T08:28:25;19.45;;;5.63;;
20531;SDS011;10424;52.102;8.084;2024-03-23T08:30:52;12.07;;;5.13;;
20531;SDS011;10424;52.102;8.084;2024-03-23T08:33:19;13.50;;;5.30;;
20531;SDS011;10424;52.102;8.084;2024-03-23T08:35:52;13.82;;;5.18;;
20531;SDS011;10424;52.102;8.084;2024-03-23T08:38:20;14.35;;;5.20;;
20531;SDS011;10424;52.102;8.084;2024-03-23T08:40:46;12.10;;;4.68;;
20531;SDS011;10424;52.102;8.084;2024-03-23T08:43:14;13.35;;;4.78;;
20531;SDS011;10424;52.102;8.084;2024-03-23T08:45:41;12.45;;;4.68;;
20531;SDS011;10424;52.102;8.084;2024-03-23T08:48:08;12.10;;;4.57;;
20531;SDS011;10424;52.102;8.084;2024-03-23T08:50:34;18.83;;;5.30;;
20531;SDS011;10424;52.102;8.084;2024-03-23T08:53:02;11.73;;;3.75;;
20531;SDS011;10424;52.102;8.084;2024-03-23T08:55:29;13.55;;;4.40;;
20531;SDS011;10424;52.102;8.084;2024-03-23T08:57:56;12.73;;;4.63;;
20531;SDS011;10424;52.102;8.084;2024-03-23T09:00:24;9.95;;;3.97;;
20531;SDS011;10424;52.102;8.084;2024-03-23T09:02:51;10.27;;;3.42;;
20531;SDS011;10424;52.102;8.084;2024-03-23T09:05:18;11.52;;;3.90;;
20531;SDS011;10424;52.102;8.084;2024-03-23T09:07:46;11.32;;;3.63;;
20531;SDS011;10424;52.102;8.084;2024-03-23T09:10:12;8.75;;;2.83;;
20531;SDS011;10424;52.102;8.084;2024-03-23T09:12:39;10.75;;;3.47;;
20531;SDS011;10424;52.102;8.084;2024-03-23T09:15:06;9.18;;;3.25;;
20531;SDS011;10424;52.102;8.084;2024-03-23T09:17:34;13.00;;;3.55;;
20531;SDS011;10424;52.102;8.084;2024-03-23T09:20:00;7.97;;;3.42;;
20531;SDS011;10424;52.102;8.084;2024-03-23T09:22:28;9.40;;;3.83;;
20531;SDS011;10424;52.102;8.084;2024-03-23T09:24:54;8.45;;;3.58;;
20531;SDS011;10424;52.102;8.084;2024-03-23T09:27:21;9.95;;;3.17;;
20531;SDS011;10424;52.102;8.084;2024-03-23T09:29:47;9.65;;;2.90;;
20531;SDS011;10424;52.102;8.084;2024-03-23T09:32:14;11.25;;;3.33;;
20531;SDS011;10424;52.102;8.084;2024-03-23T09:34:42;7.35;;;2.75;;
20531;SDS011;10424;52.102;8.084;2024-03-23T09:37:09;7.38;;;2.63;;
20531;SDS011;10424;52.102;8.084;2024-03-23T09:39:35;7.30;;;2.85;;
20531;SDS011;10424;52.102;8.084;2024-03-23T09:42:02;7.47;;;2.70;;
20531;SDS011;10424;52.102;8.084;2024-03-23T09:44:29;8.90;;;3.13;;
20531;SDS011;10424;52.102;8.084;2024-03-23T09:46:57;7.25;;;2.88;;
20531;SDS011;10424;52.102;8.084;2024-03-23T09:49:23;8.95;;;2.72;;
20531;SDS011;10424;52.102;8.084;2024-03-23T09:51:52;6.22;;;2.60;;
20531;SDS011;10424;52.102;8.084;2024-03-23T09:54:20;7.00;;;2.53;;
20531;SDS011;10424;52.102;8.084;2024-03-23T09:56:48;7.20;;;2.67;;
20531;SDS011;10424;52.102;8.084;2024-03-23T09:59:14;6.15;;;2.53;;
20531;SDS011;10424;52.102;8.084;2024-03-23T10:01:41;6.15;;;2.70;;
20531;SDS011;10424;52.102;8.084;2024-03-23T10:04:08;7.55;;;2.70;;
20531;SDS011;10424;52.102;8.084;2024-03-23T10:06:35;8.32;;;2.50;;
20531;SDS011;10424;52.102;8.084;2024-03-23T10:09:03;6.70;;;2.35;;
20531;SDS011;10424;52.102;8.084;2024-03-23T10:11:44;7.60;;;2.70;;
20531;SDS011;10424;52.102;8.084;2024-03-23T10:14:14;5.90;;;2.30;;
20531;SDS011;10424;52.102;8.084;2024-03-23T10:16:57;5.78;;;2.35;;
20531;SDS011;10424;52.102;8.084;2024-03-23T10:19:38;6.82;;;2.63;;
20531;SDS011;10424;52.102;8.084;2024-03-23T10:22:05;6.18;;;2.33;;
20531;SDS011;10424;52.102;8.084;2024-03-23T10:24:33;6.78;;;2.25;;
20531;SDS011;10424;52.102;8.084;2024-03-23T10:27:00;7.50;;;2.28;;
20531;SDS011;10424;52.102;8.084;2024-03-23T10:29:27;7.55;;;2.72;;
20531;SDS011;10424;52.102;8.084;2024-03-23T10:31:55;6.63;;;2.65;;
20531;SDS011;10424;52.102;8.084;2024-03-23T10:34:25;6.97;;;2.65;;
20531;SDS011;10424;52.102;8.084;2024-03-23T10:36:53;11.55;;;2.95;;
20531;SDS011;10424;52.102;8.084;2024-03-23T10:39:20;5.68;;;2.00;;
20531;SDS011;10424;52.102;8.084;2024-03-23T10:41:50;5.32;;;2.00;;
20531;SDS011;10424;52.102;8.084;2024-03-23T10:44:16;4.03;;;1.55;;
20531;SDS011;10424;52.102;8.084;2024-03-23T10:46:45;3.85;;;1.60;;
20531;SDS011;10424;52.102;8.084;2024-03-23T10:49:11;5.10;;;1.77;;
20531;SDS011;10424;52.102;8.084;2024-03-23T10:51:38;5.53;;;2.38;;
20531;SDS011;10424;52.102;8.084;2024-03-23T10:54:05;5.10;;;2.50;;
20531;SDS011;10424;52.102;8.084;2024-03-23T10:56:38;5.30;;;2.47;;
20531;SDS011;10424;52.102;8.084;2024-03-23T10:59:06;5.90;;;2.60;;
20531;SDS011;10424;52.102;8.084;2024-03-23T11:01:34;6.43;;;2.55;;
20531;SDS011;10424;52.102;8.084;2024-03-23T11:04:00;6.63;;;2.47;;
20531;SDS011;10424;52.102;8.084;2024-03-23T11:06:34;4.60;;;2.10;;
20531;SDS011;10424;52.102;8.084;2024-03-23T11:09:00;6.22;;;2.03;;
20531;SDS011;10424;52.102;8.084;2024-03-23T11:11:27;5.43;;;2.25;;
20531;SDS011;10424;52.102;8.084;2024-03-23T11:13:57;7.47;;;2.60;;
20531;SDS011;10424;52.102;8.084;2024-03-23T11:16:25;7.93;;;2.58;;
20531;SDS011;10424;52.102;8.084;2024-03-23T11:18:53;5.03;;;2.33;;
20531;SDS011;10424;52.102;8.084;2024-03-23T11:24:14;6.93;;;2.42;;
20531;SDS011;10424;52.102;8.084;2024-03-23T11:26:41;6.32;;;2.55;;
20531;SDS011;10424;52.102;8.084;2024-03-23T11:29:11;6.05;;;2.47;;
20531;SDS011;10424;52.102;8.084;2024-03-23T11:31:39;6.75;;;3.00;;
20531;SDS011;10424;52.102;8.084;2024-03-23T11:34:11;5.32;;;2.20;;
20531;SDS011;10424;52.102;8.084;2024-03-23T11:36:38;4.18;;;2.10;;
20531;SDS011;10424;52.102;8.084;2024-03-23T11:39:11;6.43;;;2.17;;
20531;SDS011;10424;52.102;8.084;2024-03-23T11:41:45;5.05;;;2.22;;
20531;SDS011;10424;52.102;8.084;2024-03-23T11:44:14;7.28;;;1.90;;
20531;SDS011;10424;52.102;8.084;2024-03-23T11:46:42;7.28;;;2.30;;
20531;SDS011;10424;52.102;8.084;2024-03-23T11:49:19;5.85;;;2.13;;
20531;SDS011;10424;52.102;8.084;2024-03-23T11:51:47;7.57;;;1.80;;
20531;SDS011;10424;52.102;8.084;2024-03-23T11:54:14;6.50;;;2.20;;
20531;SDS011;10424;52.102;8.084;2024-03-23T11:56:41;5.65;;;1.85;;
20531;SDS011;10424;52.102;8.084;2024-03-23T11:59:29;7.63;;;2.53;;
20531;SDS011;10424;52.102;8.084;2024-03-23T12:01:59;6.45;;;2.63;;
20531;SDS011;10424;52.102;8.084;2024-03-23T12:04:26;5.47;;;2.58;;
20531;SDS011;10424;52.102;8.084;2024-03-23T12:09:34;6.70;;;1.90;;
20531;SDS011;10424;52.102;8.084;2024-03-23T12:12:05;5.40;;;1.60;;
20531;SDS011;10424;52.102;8.084;2024-03-23T12:14:31;4.70;;;1.50;;
20531;SDS011;10424;52.102;8.084;2024-03-23T12:17:08;4.97;;;1.15;;
20531;SDS011;10424;52.102;8.084;2024-03-23T12:19:34;5.13;;;1.20;;
20531;SDS011;10424;52.102;8.084;2024-03-23T12:22:02;4.90;;;1.50;;
20531;SDS011;10424;52.102;8.084;2024-03-23T12:24:29;3.45;;;1.42;;
20531;SDS011;10424;52.102;8.084;2024-03-23T12:26:59;6.85;;;2.05;;
20531;SDS011;10424;52.102;8.084;2024-03-23T12:29:26;6.57;;;1.95;;
20531;SDS011;10424;52.102;8.084;2024-03-23T12:31:53;3.40;;;1.77;;
20531;SDS011;10424;52.102;8.084;2024-03-23T12:34:20;4.10;;;1.90;;
20531;SDS011;10424;52.102;8.084;2024-03-23T12:36:48;6.47;;;1.85;;
20531;SDS011;10424;52.102;8.084;2024-03-23T12:39:14;7.15;;;2.05;;
20531;SDS011;10424;52.102;8.084;2024-03-23T12:41:41;6.45;;;2.00;;
20531;SDS011;10424;52.102;8.084;2024-03-23T12:44:07;2.08;;;1.02;;
20531;SDS011;10424;52.102;8.084;2024-03-23T12:46:36;0.70;;;0.68;;
20531;SDS011;10424;52.102;8.084;2024-03-23T12:49:03;2.22;;;1.02;;
20531;SDS011;10424;52.102;8.084;2024-03-23T12:51:31;2.75;;;0.80;;
20531;SDS011;10424;52.102;8.084;2024-03-23T12:53:58;2.13;;;1.00;;
20531;SDS011;10424;52.102;8.084;2024-03-23T12:56:25;2.13;;;0.90;;
20531;SDS011;10424;52.102;8.084;2024-03-23T12:58:53;3.58;;;0.95;;
20531;SDS011;10424;52.102;8.084;2024-03-23T13:01:22;1.83;;;0.90;;
20531;SDS011;10424;52.102;8.084;2024-03-23T13:03:48;1.20;;;0.80;;
20531;SDS011;10424;52.102;8.084;2024-03-23T13:06:15;2.17;;;0.75;;
20531;SDS011;10424;52.102;8.084;2024-03-23T13:08:43;3.25;;;1.50;;
20531;SDS011;10424;52.102;8.084;2024-03-23T13:11:10;4.80;;;1.27;;
20531;SDS011;10424;52.102;8.084;2024-03-23T13:13:37;2.92;;;1.42;;
20531;SDS011;10424;52.102;8.084;2024-03-23T13:16:04;2.55;;;1.00;;
20531;SDS011;10424;52.102;8.084;2024-03-23T13:18:31;3.47;;;1.02;;
20531;SDS011;10424;52.102;8.084;2024-03-23T13:20:58;2.83;;;1.00;;
20531;SDS011;10424;52.102;8.084;2024-03-23T13:23:24;3.08;;;1.23;;
20531;SDS011;10424;52.102;8.084;2024-03-23T13:25:53;3.05;;;1.00;;
20531;SDS011;10424;52.102;8.084;2024-03-23T13:28:19;4.75;;;1.40;;
20531;SDS011;10424;52.102;8.084;2024-03-23T13:30:50;3.30;;;1.38;;
20531;SDS011;10424;52.102;8.084;2024-03-23T13:33:16;3.35;;;1.52;;
20531;SDS011;10424;52.102;8.084;2024-03-23T13:35:48;2.90;;;1.55;;
20531;SDS011;10424;52.102;8.084;2024-03-23T13:38:15;4.68;;;1.40;;
20531;SDS011;10424;52.102;8.084;2024-03-23T13:40:49;3.80;;;1.50;;
20531;SDS011;10424;52.102;8.084;2024-03-23T13:43:16;4.32;;;1.77;;
20531;SDS011;10424;52.102;8.084;2024-03-23T13:45:44;6.18;;;1.60;;
20531;SDS011;10424;52.102;8.084;2024-03-23T13:48:11;5.55;;;1.80;;
20531;SDS011;10424;52.102;8.084;2024-03-23T13:50:37;3.85;;;1.70;;
20531;SDS011;10424;52.102;8.084;2024-03-23T13:53:04;3.10;;;1.67;;
20531;SDS011;10424;52.102;8.084;2024-03-23T13:55:31;2.33;;;0.95;;
20531;SDS011;10424;52.102;8.084;2024-03-23T13:57:58;1.85;;;0.60;;
20531;SDS011;10424;52.102;8.084;2024-03-23T14:00:26;0.60;;;0.52;;
20531;SDS011;10424;52.102;8.084;2024-03-23T14:02:53;3.17;;;0.60;;
20531;SDS011;10424;52.102;8.084;2024-03-23T14:05:19;1.05;;;0.50;;
20531;SDS011;10424;52.102;8.084;2024-03-23T14:07:46;3.42;;;0.80;;
20531;SDS011;10424;52.102;8.084;2024-03-23T14:10:14;2.75;;;0.82;;
20531;SDS011;10424;52.102;8.084;2024-03-23T14:12:41;1.77;;;0.98;;
20531;SDS011;10424;52.102;8.084;2024-03-23T14:15:07;3.50;;;0.90;;
20531;SDS011;10424;52.102;8.084;2024-03-23T14:17:36;1.92;;;0.80;;
20531;SDS011;10424;52.102;8.084;2024-03-23T14:20:05;1.95;;;0.82;;
20531;SDS011;10424;52.102;8.084;2024-03-23T14:22:34;2.20;;;0.85;;
20531;SDS011;10424;52.102;8.084;2024-03-23T14:25:00;4.45;;;1.10;;
20531;SDS011;10424;52.102;8.084;2024-03-23T14:27:28;4.32;;;1.33;;
20531;SDS011;10424;52.102;8.084;2024-03-23T14:29:54;3.55;;;1.10;;
20531;SDS011;10424;52.102;8.084;2024-03-23T14:32:22;5.93;;;1.30;;
20531;SDS011;10424;52.102;8.084;2024-03-23T14:34:50;4.65;;;1.35;;
20531;SDS011;10424;52.102;8.084;2024-03-23T14:37:19;5.57;;;1.35;;
20531;SDS011;10424;52.102;8.084;2024-03-23T14:39:45;3.47;;;1.30;;
20531;SDS011;10424;52.102;8.084;2024-03-23T14:42:12;3.45;;;1.27;;
20531;SDS011;10424;52.102;8.084;2024-03-23T14:44:39;8.25;;;2.08;;
20531;SDS011;10424;52.102;8.084;2024-03-23T14:47:07;9.57;;;1.58;;
20531;SDS011;10424;52.102;8.084;2024-03-23T14:49:33;6.13;;;2.42;;
20531;SDS011;10424;52.102;8.084;2024-03-23T14:52:02;9.38;;;2.47;;
20531;SDS011;10424;52.102;8.084;2024-03-23T14:54:28;5.45;;;1.80;;
20531;SDS011;10424;52.102;8.084;2024-03-23T14:56:56;4.80;;;1.98;;
20531;SDS011;10424;52.102;8.084;2024-03-23T14:59:23;3.13;;;1.50;;
20531;SDS011;10424;52.102;8.084;2024-03-23T15:01:50;2.03;;;1.17;;
20531;SDS011;10424;52.102;8.084;2024-03-23T15:04:16;2.97;;;1.20;;
20531;SDS011;10424;52.102;8.084;2024-03-23T15:06:44;2.53;;;1.20;;
20531;SDS011;10424;52.102;8.084;2024-03-23T15:09:15;4.53;;;1.42;;
20531;SDS011;10424;52.102;8.084;2024-03-23T15:11:43;4.03;;;1.58;;
20531;SDS011;10424;52.102;8.084;2024-03-23T15:14:09;3.00;;;1.00;;
20531;SDS011;10424;52.102;8.084;2024-03-23T15:16:36;2.75;;;1.13;;
20531;SDS011;10424;52.102;8.084;2024-03-23T15:19:03;7.00;;;1.70;;
20531;SDS011;10424;52.102;8.084;2024-03-23T15:21:31;5.82;;;1.70;;
20531;SDS011;10424;52.102;8.084;2024-03-23T15:23:57;4.15;;;1.70;;
20531;SDS011;10424;52.102;8.084;2024-03-23T15:26:25;5.20;;;1.90;;
20531;SDS011;10424;52.102;8.084;2024-03-23T15:28:52;2.58;;;1.38;;
20531;SDS011;10424;52.102;8.084;2024-03-23T15:31:36;4.60;;;1.70;;
20531;SDS011;10424;52.102;8.084;2024-03-23T15:34:03;2.30;;;1.52;;
20531;SDS011;10424;52.102;8.084;2024-03-23T15:36:34;6.65;;;2.20;;
20531;SDS011;10424;52.102;8.084;2024-03-23T15:39:02;5.88;;;1.85;;
20531;SDS011;10424;52.102;8.084;2024-03-23T15:41:30;4.20;;;1.70;;